메인 페이지
METAR-TAF:

METAR-TAF

공항 :

상하이 푸둥 국제공항

상해 / 푸동, 중국

위도: 31-07N, 경도: 121-46E, 고도: 4m

현재 날씨관측

예보는 37분 전, 21:00시(UTC)에 발표되었습니다.
북북서12kt
온도 18°C
습도 73%
기압 1013 hPa
시정 10km 이상
1500m 미만 상공 구름 및 적란운 없음

METAR: ZSPD 222100Z 33006MPS CAVOK 18/13 Q1013 NOSIG

시각: 05:37 (21:37 UTC)

예보

예보는 6 시간 11분 전, 15:26시(UTC)에 발표되었습니다.
예보 대상 시간: 22일 18시부터 23일 18시까지 (UTC)
북북서14kt
시정: 6000m
고도 1300ft 상공 구름 많음
전환 중
23일 06시부터 23일 08시까지 (UTC)
북동8kt

TAF: ZSPD 221526Z 2218/2318 34007MPS 6000 BKN013 TX25/2306Z TN18/2221Z BECMG 2306/2308 04004MPS

4,000개 이상의 공항 관측 자료 및 예보 (METAR 및 TAF 보고).

지도상에서 검색 가능한 기상관측소가 노란 점과 빨간 점으로 표시되어 있습니다.

기상관측소 명을 보려면 표시 위로 마우스를 이동하세요.

날씨 관측과 예보를 보려면 클릭하세요.

지도 변경 : 확대하려면 엑스 표시가 있는 녹색 버튼, 축소하려면 빼기 표시가 있는 녹색 버튼, 다음 페이지의 지도를 보려면 녹색 화살표를 클릭하세요.


METAR-TAF: